Time;durP1;ratioP1;P1;durP2;ratioP2;P2;SDS_P1;SDS_P2;PMS_P1;PMS_P2;Temp;Humidity;BMP_temperature;BMP_pressure;BME280_temperature;BME280_humidity;BME280_pressure;Samples;Min_cycle;Max_cycle;Signal;HPM_P1;HPM_P2
2023/09/13 00:00:10;;;;;;;6.68;3.13;;;19.90;99.90;;;;;;4999152;28;20061;-34
2023/09/13 00:02:36;;;;;;;4.68;3.33;;;19.90;99.90;;;;;;5001932;28;20078;-34
2023/09/13 00:05:02;;;;;;;5.70;3.80;;;19.80;99.90;;;;;;5003927;28;20057;-34
2023/09/13 00:07:28;;;;;;;5.93;3.47;;;19.80;99.90;;;;;;4986239;28;20068;-34
2023/09/13 00:09:54;;;;;;;5.10;3.38;;;19.80;99.90;;;;;;5001732;28;20058;-35
2023/09/13 00:12:19;;;;;;;5.72;3.72;;;19.80;99.90;;;;;;5005213;28;20058;-34
2023/09/13 00:14:46;;;;;;;4.95;3.10;;;19.90;99.90;;;;;;5004761;28;20058;-34
2023/09/13 00:17:12;;;;;;;5.30;2.78;;;19.80;99.90;;;;;;5005151;28;20584;-34
2023/09/13 00:19:37;;;;;;;8.30;3.45;;;19.90;99.90;;;;;;5001711;28;20137;-34
2023/09/13 00:22:03;;;;;;;6.70;3.13;;;19.90;99.90;;;;;;5001643;28;20105;-34
2023/09/13 00:24:29;;;;;;;6.65;3.15;;;19.90;99.90;;;;;;5005025;28;20534;-34
2023/09/13 00:26:55;;;;;;;6.55;3.00;;;19.90;99.90;;;;;;4999902;28;20058;-34
2023/09/13 00:29:20;;;;;;;8.93;3.55;;;19.90;99.90;;;;;;5001775;28;20058;-34
2023/09/13 00:31:46;;;;;;;5.75;2.72;;;19.90;99.90;;;;;;5001562;28;20049;-34
2023/09/13 00:34:12;;;;;;;5.38;2.95;;;19.90;99.90;;;;;;4999293;28;20058;-34
2023/09/13 00:36:37;;;;;;;6.03;2.75;;;19.90;99.90;;;;;;5001473;28;20526;-34
2023/09/13 00:39:04;;;;;;;5.50;3.40;;;19.80;99.90;;;;;;5001324;28;20048;-34
2023/09/13 00:41:34;;;;;;;6.35;3.40;;;19.80;99.90;;;;;;4999553;28;20060;-34
2023/09/13 00:43:59;;;;;;;6.93;3.50;;;19.80;99.90;;;;;;4998753;28;20052;-35
2023/09/13 00:46:26;;;;;;;4.60;2.72;;;19.90;99.90;;;;;;5001645;28;20046;-34
2023/09/13 00:48:52;;;;;;;5.78;3.47;;;19.80;99.90;;;;;;4999596;28;20049;-34
2023/09/13 00:51:18;;;;;;;5.70;3.28;;;19.90;99.90;;;;;;5004388;28;20095;-34
2023/09/13 00:53:46;;;;;;;5.80;3.30;;;19.80;99.90;;;;;;4999951;28;20084;-34
2023/09/13 00:56:12;;;;;;;8.20;3.08;;;19.80;99.90;;;;;;5002422;28;20049;-34
2023/09/13 00:58:39;;;;;;;4.88;2.90;;;19.90;99.90;;;;;;4982855;28;20049;-34
2023/09/13 01:01:06;;;;;;;5.97;3.30;;;19.90;99.90;;;;;;5002010;28;20050;-34
2023/09/13 01:03:32;;;;;;;4.55;2.75;;;19.90;99.90;;;;;;4997371;28;20149;-34
2023/09/13 01:05:59;;;;;;;5.78;3.78;;;19.90;99.90;;;;;;4999870;28;20121;-34
2023/09/13 01:08:25;;;;;;;5.00;2.92;;;19.90;99.90;;;;;;4998411;28;20042;-34
2023/09/13 01:10:51;;;;;;;7.38;3.42;;;19.90;99.90;;;;;;5003149;28;20415;-33
2023/09/13 01:13:17;;;;;;;6.45;3.08;;;19.90;99.90;;;;;;4998994;28;20054;-34
2023/09/13 01:16:03;;;;;;;5.95;3.38;;;19.80;99.90;;;;;;4983158;28;20053;-34
2023/09/13 01:18:50;;;;;;;8.50;3.65;;;19.80;99.90;;;;;;5001601;28;20141;-34
2023/09/13 01:21:31;;;;;;;8.88;3.60;;;19.80;99.90;;;;;;4999540;28;20050;-34
2023/09/13 01:24:17;;;;;;;8.37;3.30;;;19.70;99.90;;;;;;5001307;28;20050;-33
2023/09/13 01:26:48;;;;;;;7.03;3.50;;;19.70;99.90;;;;;;4999678;28;20137;-34
2023/09/13 01:29:16;;;;;;;6.03;3.90;;;19.70;99.90;;;;;;4996521;28;20136;-34
2023/09/13 01:31:42;;;;;;;5.78;3.42;;;19.70;99.90;;;;;;4996496;28;20050;-33
2023/09/13 01:34:10;;;;;;;5.68;3.35;;;19.60;99.90;;;;;;4992390;28;20625;-34
2023/09/13 01:36:37;;;;;;;11.23;4.00;;;19.60;99.90;;;;;;4995142;28;20732;-34
2023/09/13 01:39:04;;;;;;;6.78;3.50;;;19.60;99.90;;;;;;4989208;28;20066;-33
2023/09/13 01:41:47;;;;;;;8.02;3.38;;;19.60;99.90;;;;;;4992624;28;20069;-33
2023/09/13 01:44:14;;;;;;;7.03;3.50;;;19.60;99.90;;;;;;5001046;28;20045;-34
2023/09/13 01:46:43;;;;;;;5.95;3.97;;;19.50;99.90;;;;;;4998071;28;20049;-33
2023/09/13 01:49:12;;;;;;;6.28;3.45;;;19.60;99.90;;;;;;5001538;28;20053;-35
2023/09/13 01:51:38;;;;;;;7.72;3.88;;;19.60;99.90;;;;;;5002296;28;20108;-34
2023/09/13 01:54:04;;;;;;;7.70;3.90;;;19.60;99.90;;;;;;5003550;28;20487;-34
2023/09/13 01:56:30;;;;;;;6.40;3.78;;;19.60;99.90;;;;;;5001650;28;20053;-34
2023/09/13 01:58:55;;;;;;;9.02;4.47;;;19.50;99.90;;;;;;5001710;28;20181;-34
2023/09/13 02:01:21;;;;;;;5.00;3.38;;;19.50;99.90;;;;;;5003049;28;20200;-34
2023/09/13 02:03:50;;;;;;;7.28;3.70;;;19.50;99.90;;;;;;5003294;28;20069;-34
2023/09/13 02:06:15;;;;;;;6.85;3.80;;;19.50;99.90;;;;;;5003094;28;20057;-34
2023/09/13 02:08:42;;;;;;;6.40;3.75;;;19.50;99.90;;;;;;5004539;28;20046;-34
2023/09/13 02:11:08;;;;;;;7.75;4.00;;;19.50;99.90;;;;;;5004905;28;20049;-34
2023/09/13 02:13:34;;;;;;;5.32;3.15;;;19.50;99.90;;;;;;5006185;28;20526;-34
2023/09/13 02:16:01;;;;;;;7.40;3.85;;;19.40;99.90;;;;;;5004580;28;20077;-34
2023/09/13 02:18:27;;;;;;;7.07;4.00;;;19.40;99.90;;;;;;5002041;28;20046;-34
2023/09/13 02:20:52;;;;;;;8.35;4.53;;;19.40;99.90;;;;;;5007847;28;20053;-34
2023/09/13 02:23:19;;;;;;;6.20;3.80;;;19.50;99.90;;;;;;5003427;28;20042;-34
2023/09/13 02:25:45;;;;;;;7.47;4.15;;;19.50;99.90;;;;;;5000776;28;20408;-34
2023/09/13 02:28:12;;;;;;;9.38;3.58;;;19.40;99.90;;;;;;5006157;28;20054;-34
2023/09/13 02:30:38;;;;;;;13.13;3.70;;;19.40;99.90;;;;;;5005232;28;20487;-34
2023/09/13 02:33:05;;;;;;;5.07;3.50;;;19.40;99.90;;;;;;5000615;28;20049;-34
2023/09/13 02:35:31;;;;;;;7.75;4.22;;;19.30;99.90;;;;;;5008609;28;20108;-34
2023/09/13 02:37:57;;;;;;;10.27;4.30;;;19.30;99.90;;;;;;4999636;28;20046;-34
2023/09/13 02:40:23;;;;;;;7.45;3.60;;;19.30;99.90;;;;;;5001467;28;20423;-34
2023/09/13 02:42:49;;;;;;;6.47;3.60;;;19.20;99.90;;;;;;5002606;28;20056;-35
2023/09/13 02:45:15;;;;;;;8.30;3.25;;;19.20;99.90;;;;;;5003115;28;20052;-34
2023/09/13 02:47:41;;;;;;;8.95;4.15;;;19.20;99.90;;;;;;5003965;28;20470;-35
2023/09/13 02:50:07;;;;;;;5.28;3.20;;;19.20;99.90;;;;;;5000809;28;20503;-35
2023/09/13 02:52:33;;;;;;;9.00;2.88;;;19.20;99.90;;;;;;5006024;28;20062;-34
2023/09/13 02:55:00;;;;;;;7.88;2.88;;;19.30;99.90;;;;;;5007106;28;20068;-35
2023/09/13 02:57:26;;;;;;;6.50;2.90;;;19.30;99.90;;;;;;5000677;28;20124;-35
2023/09/13 02:59:52;;;;;;;7.50;2.97;;;19.20;99.90;;;;;;5001937;28;20049;-35
2023/09/13 03:02:18;;;;;;;6.45;2.45;;;19.10;99.90;;;;;;4999882;28;20052;-34
2023/09/13 03:04:44;;;;;;;8.68;2.95;;;19.10;99.90;;;;;;5001809;28;20057;-40
2023/09/13 03:07:10;;;;;;;6.22;2.47;;;19.10;99.90;;;;;;4998535;28;20057;-35
2023/09/13 03:09:36;;;;;;;8.13;2.53;;;19.10;99.90;;;;;;5003204;28;20435;-35
2023/09/13 03:12:02;;;;;;;7.18;2.20;;;19.10;99.90;;;;;;5003013;28;20128;-35
2023/09/13 03:14:31;;;;;;;5.35;2.53;;;19.10;99.90;;;;;;5000666;28;20046;-35
2023/09/13 03:16:56;;;;;;;5.90;3.10;;;19.10;99.90;;;;;;5002044;28;20479;-34
2023/09/13 03:19:22;;;;;;;5.50;2.28;;;19.10;99.90;;;;;;5002509;28;20046;-35
2023/09/13 03:21:50;;;;;;;5.22;2.35;;;19.10;99.90;;;;;;4999836;28;20108;-34
2023/09/13 03:24:15;;;;;;;4.20;2.10;;;19.00;99.90;;;;;;5003605;28;20384;-35
2023/09/13 03:26:41;;;;;;;7.85;2.42;;;19.00;99.90;;;;;;5001696;28;20116;-34
2023/09/13 03:29:06;;;;;;;5.63;1.88;;;19.00;99.90;;;;;;5001721;28;20056;-34
2023/09/13 03:31:32;;;;;;;6.20;2.40;;;19.00;99.90;;;;;;5002763;28;20053;-35
2023/09/13 03:33:59;;;;;;;7.78;2.15;;;19.00;99.90;;;;;;5000945;28;20057;-34
2023/09/13 03:36:28;;;;;;;6.00;2.30;;;18.90;99.90;;;;;;4987685;28;20089;-34
2023/09/13 03:38:54;;;;;;;6.95;2.00;;;18.90;99.90;;;;;;5002362;28;20062;-35
2023/09/13 03:41:21;;;;;;;6.38;2.00;;;18.90;99.90;;;;;;5002768;28;20054;-34
2023/09/13 03:43:47;;;;;;;6.03;2.25;;;19.00;99.90;;;;;;5000047;28;20046;-34
2023/09/13 03:46:13;;;;;;;4.57;2.03;;;18.90;99.90;;;;;;5004353;28;20055;-35
2023/09/13 03:48:39;;;;;;;7.60;2.53;;;19.00;99.90;;;;;;5000660;28;20479;-34
2023/09/13 03:51:07;;;;;;;8.10;2.65;;;19.00;99.90;;;;;;5005439;28;20128;-35
2023/09/13 03:53:33;;;;;;;5.28;2.20;;;19.00;99.90;;;;;;5004261;28;20053;-35
2023/09/13 03:56:00;;;;;;;5.75;2.70;;;19.00;99.90;;;;;;5005994;28;20514;-35
2023/09/13 03:58:26;;;;;;;4.32;2.30;;;19.00;99.90;;;;;;4988132;28;20124;-35
2023/09/13 04:00:53;;;;;;;6.65;2.47;;;19.00;99.90;;;;;;4997516;28;20046;-35
2023/09/13 04:03:20;;;;;;;5.43;2.88;;;19.00;99.90;;;;;;5002322;28;20072;-35
2023/09/13 04:05:45;;;;;;;4.57;2.17;;;19.00;99.90;;;;;;5000636;28;20077;-35
2023/09/13 04:08:11;;;;;;;5.47;2.20;;;19.00;99.90;;;;;;4999743;28;20163;-35
2023/09/13 04:10:37;;;;;;;6.50;2.47;;;19.00;99.90;;;;;;5004495;28;20053;-35
2023/09/13 04:13:03;;;;;;;6.55;2.30;;;19.00;99.90;;;;;;5003027;28;20062;-36
2023/09/13 04:15:29;;;;;;;7.93;2.55;;;19.00;99.90;;;;;;5002641;28;20089;-35
2023/09/13 04:17:55;;;;;;;4.10;2.13;;;18.90;99.90;;;;;;5001321;28;20065;-36
2023/09/13 04:20:21;;;;;;;4.47;1.90;;;18.80;99.90;;;;;;5003426;28;20080;-35
2023/09/13 04:22:47;;;;;;;4.55;2.20;;;18.80;99.90;;;;;;5001098;28;20049;-36
2023/09/13 04:25:13;;;;;;;6.53;2.45;;;18.70;99.90;;;;;;5002647;28;20499;-35
2023/09/13 04:27:45;;;;;;;5.65;1.58;;;18.70;99.90;;;;;;5000857;28;20571;-36
2023/09/13 04:30:12;;;;;;;6.55;2.30;;;18.70;99.90;;;;;;5001750;28;20108;-35
2023/09/13 04:32:38;;;;;;;5.13;1.83;;;18.60;99.90;;;;;;5000632;28;20471;-36
2023/09/13 04:35:04;;;;;;;6.00;2.17;;;18.50;99.90;;;;;;4998246;28;20112;-36
2023/09/13 04:37:30;;;;;;;5.60;2.05;;;18.40;99.90;;;;;;4998265;28;20185;-36
2023/09/13 04:39:57;;;;;;;3.58;1.52;;;18.40;99.90;;;;;;5005000;28;20571;-35
2023/09/13 04:42:23;;;;;;;4.28;1.30;;;18.20;99.90;;;;;;5001840;28;20281;-36
2023/09/13 04:44:49;;;;;;;3.95;1.50;;;18.20;99.90;;;;;;5002741;28;20054;-36
2023/09/13 04:47:14;;;;;;;4.95;1.88;;;18.20;99.90;;;;;;5002714;28;20073;-35
2023/09/13 04:49:40;;;;;;;3.90;1.30;;;18.20;99.90;;;;;;5002105;28;20050;-36
2023/09/13 04:52:09;;;;;;;4.35;0.90;;;18.20;99.90;;;;;;4997299;28;20471;-36
2023/09/13 04:54:36;;;;;;;2.75;1.00;;;18.20;99.90;;;;;;5002184;28;20103;-35
2023/09/13 04:57:05;;;;;;;3.45;1.10;;;18.20;99.90;;;;;;5004203;28;20078;-36
2023/09/13 04:59:45;;;;;;;2.85;0.90;;;18.20;99.90;;;;;;4999036;28;20057;-36
2023/09/13 05:02:11;;;;;;;3.17;1.00;;;18.20;99.90;;;;;;4998290;28;20073;-36
2023/09/13 05:04:38;;;;;;;2.45;1.30;;;18.10;99.90;;;;;;4998953;28;20082;-36
2023/09/13 05:07:04;;;;;;;5.88;1.10;;;18.10;99.90;;;;;;4977329;28;20076;-35
2023/09/13 05:09:30;;;;;;;2.17;0.60;;;18.10;99.90;;;;;;4997008;28;20062;-36
2023/09/13 05:11:56;;;;;;;3.90;0.80;;;18.10;99.90;;;;;;5001229;28;20056;-36
2023/09/13 05:14:21;;;;;;;3.05;0.73;;;18.10;99.90;;;;;;4998513;28;20077;-35
2023/09/13 05:16:47;;;;;;;1.65;0.50;;;18.00;99.90;;;;;;4999009;28;20054;-36
2023/09/13 05:19:13;;;;;;;1.63;0.60;;;18.00;99.90;;;;;;5001478;28;20076;-35
2023/09/13 05:21:38;;;;;;;2.70;0.45;;;17.90;99.90;;;;;;5000646;28;20092;-35
2023/09/13 05:24:04;;;;;;;2.08;0.50;;;17.80;99.90;;;;;;5005002;28;20049;-36
2023/09/13 05:26:30;;;;;;;3.53;0.40;;;17.70;99.90;;;;;;5004600;28;20197;-35
2023/09/13 05:28:55;;;;;;;8.25;0.57;;;17.60;99.90;;;;;;5004474;28;20054;-36
2023/09/13 05:31:21;;;;;;;2.15;0.30;;;17.40;99.90;;;;;;4999897;28;20069;-36
2023/09/13 05:33:47;;;;;;;4.10;0.40;;;17.20;99.90;;;;;;5003720;28;20061;-36
2023/09/13 05:36:14;;;;;;;3.13;1.15;;;17.00;99.90;;;;;;5005914;28;20042;-36
2023/09/13 05:38:40;;;;;;;1.75;0.50;;;16.80;99.90;;;;;;5002815;28;20057;-36
2023/09/13 05:41:07;;;;;;;3.58;0.80;;;16.60;99.90;;;;;;5004354;28;20054;-36
2023/09/13 05:43:43;;;;;;;3.08;0.80;;;16.40;99.90;;;;;;5003276;28;20050;-37
2023/09/13 05:46:09;;;;;;;3.53;0.77;;;16.20;99.90;;;;;;4985674;28;20053;-36
2023/09/13 05:48:36;;;;;;;4.07;0.80;;;16.10;99.90;;;;;;4980246;28;20058;-36
2023/09/13 05:51:02;;;;;;;4.00;0.60;;;16.00;99.90;;;;;;5008227;28;20046;-36
2023/09/13 05:53:29;;;;;;;5.63;0.95;;;15.90;99.90;;;;;;5004099;28;20103;-35
2023/09/13 05:55:55;;;;;;;3.63;0.80;;;15.80;99.90;;;;;;5007680;28;20050;-36
2023/09/13 05:58:21;;;;;;;2.63;0.60;;;15.70;99.90;;;;;;4988191;28;20062;-36
2023/09/13 06:00:48;;;;;;;3.55;0.70;;;15.80;99.90;;;;;;4998595;28;20061;-36
2023/09/13 06:03:16;;;;;;;2.58;0.70;;;15.80;99.90;;;;;;5003760;28;20533;-36
2023/09/13 06:05:41;;;;;;;1.95;0.68;;;15.70;99.90;;;;;;4996741;28;20496;-36
2023/09/13 06:08:07;;;;;;;4.35;0.45;;;15.70;99.90;;;;;;5000353;28;20057;-36
2023/09/13 06:10:33;;;;;;;3.38;0.57;;;15.70;99.90;;;;;;5003038;28;20057;-35
2023/09/13 06:12:58;;;;;;;0.98;0.35;;;15.70;99.90;;;;;;5000267;28;20053;-36
2023/09/13 06:15:24;;;;;;;1.83;0.68;;;15.70;99.90;;;;;;5004021;28;20045;-36
2023/09/13 06:17:51;;;;;;;2.50;0.60;;;15.80;99.90;;;;;;4999178;28;20045;-37
2023/09/13 06:20:17;;;;;;;3.83;0.80;;;15.80;99.90;;;;;;5001721;28;20101;-37
2023/09/13 06:22:43;;;;;;;2.60;0.70;;;15.80;99.90;;;;;;5003654;28;20062;-35
2023/09/13 06:25:09;;;;;;;2.08;0.55;;;15.80;99.90;;;;;;5006347;28;20546;-35
2023/09/13 06:27:34;;;;;;;1.83;0.45;;;15.80;99.90;;;;;;5004641;28;20049;-35
2023/09/13 06:30:00;;;;;;;2.70;0.60;;;15.80;99.90;;;;;;5004923;28;20380;-36
2023/09/13 06:32:26;;;;;;;2.08;0.50;;;15.80;99.90;;;;;;5001762;28;20056;-35
2023/09/13 06:34:54;;;;;;;1.30;0.63;;;15.80;99.90;;;;;;5004429;28;20108;-36
2023/09/13 06:37:20;;;;;;;2.80;0.47;;;15.80;99.90;;;;;;4983446;28;20056;-37
2023/09/13 06:39:47;;;;;;;1.60;0.50;;;15.80;99.90;;;;;;5008545;28;20057;-36
2023/09/13 06:42:13;;;;;;;2.80;0.70;;;15.80;99.90;;;;;;5006465;28;20058;-37
2023/09/13 06:44:40;;;;;;;2.67;0.35;;;15.70;99.90;;;;;;5004580;28;20415;-37
2023/09/13 06:47:06;;;;;;;4.03;0.55;;;15.70;99.90;;;;;;5001706;28;20054;-37
2023/09/13 06:49:31;;;;;;;2.58;0.60;;;15.70;99.90;;;;;;5003125;28;20072;-36
2023/09/13 06:51:57;;;;;;;7.80;1.30;;;15.60;99.90;;;;;;5003453;28;20087;-36
2023/09/13 06:54:23;;;;;;;3.35;0.93;;;15.60;99.90;;;;;;4981605;28;20053;-36
2023/09/13 06:56:48;;;;;;;6.53;1.23;;;15.60;99.90;;;;;;5008532;28;20057;-35
2023/09/13 06:59:14;;;;;;;3.78;0.90;;;15.60;99.90;;;;;;5006158;28;20049;-35
2023/09/13 07:01:40;;;;;;;6.95;1.15;;;15.60;99.90;;;;;;5007746;28;20054;-35
2023/09/13 07:04:06;;;;;;;3.92;0.90;;;15.60;99.90;;;;;;5006865;28;20491;-38
2023/09/13 07:06:31;;;;;;;4.72;1.40;;;15.60;99.90;;;;;;5003918;28;20046;-36
2023/09/13 07:08:57;;;;;;;3.97;0.98;;;15.70;99.90;;;;;;5002465;28;20053;-36
2023/09/13 07:11:24;;;;;;;10.68;1.45;;;15.60;99.90;;;;;;5001423;28;20101;-36
2023/09/13 07:13:49;;;;;;;5.75;1.50;;;15.70;99.90;;;;;;5007190;28;20119;-36
2023/09/13 07:16:15;;;;;;;5.03;0.70;;;15.70;99.90;;;;;;5006503;28;20487;-36
2023/09/13 07:18:41;;;;;;;6.43;1.10;;;15.80;99.90;;;;;;5006430;28;20072;-36
2023/09/13 07:21:07;;;;;;;5.30;1.33;;;15.80;99.90;;;;;;5004098;28;20053;-36
2023/09/13 07:23:33;;;;;;;3.95;1.00;;;15.80;99.90;;;;;;5004029;28;20072;-36
2023/09/13 07:25:59;;;;;;;6.38;1.02;;;15.80;99.90;;;;;;5007785;28;20056;-36
2023/09/13 07:28:25;;;;;;;3.72;1.10;;;15.80;99.90;;;;;;5003022;28;20058;-35
2023/09/13 07:30:51;;;;;;;4.10;0.70;;;15.80;99.90;;;;;;4999400;28;20065;-35
2023/09/13 07:33:17;;;;;;;4.75;0.90;;;15.80;99.90;;;;;;4982228;28;20050;-36
2023/09/13 07:35:43;;;;;;;6.50;1.40;;;15.90;99.90;;;;;;4981904;28;20557;-37
2023/09/13 07:38:10;;;;;;;4.72;1.15;;;15.90;99.90;;;;;;5001437;28;20061;-35
2023/09/13 07:40:38;;;;;;;3.60;0.90;;;15.90;99.90;;;;;;5006482;28;20112;-35
2023/09/13 07:43:06;;;;;;;4.50;1.10;;;16.00;99.90;;;;;;4986920;28;20050;-35
2023/09/13 07:45:33;;;;;;;5.75;1.08;;;16.10;99.90;;;;;;5005231;28;20057;-36
2023/09/13 07:48:00;;;;;;;4.68;1.05;;;16.10;99.90;;;;;;4981496;28;20072;-36
2023/09/13 07:50:29;;;;;;;5.50;1.23;;;16.20;99.90;;;;;;4993152;28;20054;-35
2023/09/13 07:52:55;;;;;;;4.28;0.98;;;16.30;99.90;;;;;;5001452;28;20041;-34
2023/09/13 07:55:21;;;;;;;3.95;0.73;;;16.40;99.90;;;;;;5004950;28;20129;-34
2023/09/13 07:57:47;;;;;;;5.15;0.90;;;16.40;99.90;;;;;;5007343;28;20050;-35
2023/09/13 08:00:13;;;;;;;4.13;0.88;;;16.40;99.90;;;;;;4994966;28;20050;-34
2023/09/13 08:02:41;;;;;;;9.57;2.10;;;16.50;99.90;;;;;;5002072;28;20077;-36
2023/09/13 08:05:07;;;;;;;3.47;0.90;;;16.60;99.90;;;;;;5003418;28;20053;-37
2023/09/13 08:07:33;;;;;;;7.50;1.20;;;16.70;99.90;;;;;;5001482;28;20491;-41
2023/09/13 08:10:02;;;;;;;3.42;0.93;;;16.80;99.90;;;;;;5002486;28;20116;-36
2023/09/13 08:12:28;;;;;;;6.38;1.13;;;16.90;99.90;;;;;;5005431;28;20048;-35
2023/09/13 08:14:54;;;;;;;5.93;1.20;;;17.00;99.90;;;;;;5007492;28;20042;-35
2023/09/13 08:17:19;;;;;;;4.18;1.00;;;17.00;99.90;;;;;;5007169;28;20096;-34
2023/09/13 08:19:46;;;;;;;7.28;1.25;;;17.00;99.90;;;;;;5001378;28;20458;-35
2023/09/13 08:22:12;;;;;;;5.32;0.90;;;16.90;99.90;;;;;;4999573;28;20053;-35
2023/09/13 08:24:38;;;;;;;5.28;1.23;;;16.90;99.90;;;;;;5009256;28;20483;-36
2023/09/13 08:27:04;;;;;;;5.47;1.23;;;16.80;99.90;;;;;;5003055;28;20058;-35
2023/09/13 08:29:30;;;;;;;5.55;1.30;;;16.80;99.90;;;;;;5004081;28;20050;-36
2023/09/13 08:31:56;;;;;;;5.53;1.05;;;16.80;99.90;;;;;;5002652;28;20054;-37
2023/09/13 08:34:23;;;;;;;6.40;1.30;;;16.70;99.90;;;;;;5004573;28;20060;-36
2023/09/13 08:36:50;;;;;;;8.85;1.45;;;16.70;99.90;;;;;;5011172;28;20104;-37
2023/09/13 08:39:16;;;;;;;5.82;1.33;;;16.80;99.90;;;;;;5004985;28;20057;-36
2023/09/13 08:41:49;;;;;;;3.47;0.77;;;16.90;99.90;;;;;;5006989;28;20050;-36
2023/09/13 08:44:20;;;;;;;6.85;1.25;;;16.90;99.90;;;;;;5003221;28;20141;-35
2023/09/13 08:46:50;;;;;;;4.68;1.13;;;17.00;99.90;;;;;;4998587;28;20193;-36
2023/09/13 08:49:20;;;;;;;6.75;1.20;;;17.10;99.90;;;;;;5002124;28;20085;-36
2023/09/13 08:51:46;;;;;;;4.75;1.15;;;17.30;99.90;;;;;;5000140;28;20050;-35
2023/09/13 08:54:13;;;;;;;4.07;0.80;;;17.40;99.90;;;;;;5002920;28;20057;-36
2023/09/13 08:56:43;;;;;;;11.57;1.70;;;17.40;99.90;;;;;;4986847;28;20049;-35
2023/09/13 08:59:09;;;;;;;4.65;1.05;;;17.50;99.90;;;;;;4990459;28;20081;-36
2023/09/13 09:01:40;;;;;;;5.03;1.15;;;17.60;99.90;;;;;;5003095;28;20450;-35
2023/09/13 09:04:06;;;;;;;3.13;1.17;;;17.60;99.90;;;;;;5007525;28;20195;-35
2023/09/13 09:06:32;;;;;;;3.60;1.10;;;17.70;99.90;;;;;;5004127;28;20363;-36
2023/09/13 09:08:59;;;;;;;5.68;0.90;;;17.70;99.90;;;;;;5002448;28;20399;-35
2023/09/13 09:11:27;;;;;;;5.22;1.00;;;17.70;99.90;;;;;;5007449;28;20046;-36
2023/09/13 09:13:58;;;;;;;3.60;0.75;;;17.80;99.90;;;;;;5008514;28;20089;-36
2023/09/13 09:16:27;;;;;;;3.22;0.73;;;17.90;99.90;;;;;;5005799;28;20436;-36
2023/09/13 09:18:54;;;;;;;5.78;1.27;;;18.00;99.90;;;;;;5002030;28;20042;-36
2023/09/13 09:21:20;;;;;;;4.82;0.95;;;18.10;99.90;;;;;;4988126;28;20049;-35
2023/09/13 09:23:46;;;;;;;6.85;0.70;;;18.20;99.90;;;;;;5006823;28;20037;-35
2023/09/13 09:26:12;;;;;;;3.65;0.70;;;18.20;99.90;;;;;;5006591;28;20524;-36
2023/09/13 09:28:38;;;;;;;6.50;0.82;;;18.10;99.90;;;;;;5007788;28;20097;-36
2023/09/13 09:31:04;;;;;;;2.95;0.80;;;18.00;99.90;;;;;;5000861;28;20129;-36
2023/09/13 09:33:30;;;;;;;3.55;0.60;;;17.90;99.90;;;;;;5009679;28;20046;-36
2023/09/13 09:35:59;;;;;;;7.05;0.93;;;17.90;99.90;;;;;;4988258;28;20054;-36
2023/09/13 09:38:28;;;;;;;2.97;0.82;;;18.10;99.90;;;;;;5002786;28;21005;-36
2023/09/13 09:41:00;;;;;;;7.88;1.10;;;18.20;99.90;;;;;;5008567;28;20049;-36
2023/09/13 09:43:26;;;;;;;3.38;0.80;;;18.40;99.90;;;;;;5002381;28;20519;-37
2023/09/13 09:45:52;;;;;;;2.58;0.70;;;18.60;99.90;;;;;;5003636;28;20057;-36
2023/09/13 09:48:19;;;;;;;3.83;0.82;;;18.80;99.90;;;;;;5006618;28;20496;-37
2023/09/13 09:50:46;;;;;;;3.17;0.70;;;19.00;99.90;;;;;;5004680;28;20065;-35
2023/09/13 09:53:13;;;;;;;4.05;0.90;;;19.10;99.90;;;;;;5010729;28;20433;-36
2023/09/13 09:55:40;;;;;;;2.92;0.60;;;19.20;99.90;;;;;;5009500;28;20388;-37
2023/09/13 09:58:06;;;;;;;2.88;0.70;;;19.40;99.90;;;;;;5007217;28;20131;-36
2023/09/13 10:00:46;;;;;;;4.38;0.75;;;19.50;99.90;;;;;;5011344;28;20053;-36
2023/09/13 10:03:17;;;;;;;1.98;0.60;;;19.50;99.90;;;;;;5005954;28;20112;-36
2023/09/13 10:05:59;;;;;;;2.50;0.57;;;19.40;99.90;;;;;;5003818;28;20046;-36
2023/09/13 10:08:38;;;;;;;;;;;19.30;99.90;;;;;;4999447;28;20065;-36
2023/09/13 10:11:05;;;;;;;3.72;0.80;;;19.30;99.90;;;;;;5007105;28;19932;-36
2023/09/13 10:13:32;;;;;;;4.38;0.73;;;19.40;99.90;;;;;;5006266;28;20046;-35
2023/09/13 10:15:58;;;;;;;6.20;1.15;;;19.50;99.90;;;;;;5002889;28;20752;-36
2023/09/13 10:18:25;;;;;;;4.90;0.70;;;19.60;99.90;;;;;;5005731;28;20050;-37
2023/09/13 10:20:55;;;;;;;3.13;0.60;;;19.60;99.90;;;;;;4993065;28;20054;-35
2023/09/13 10:23:23;;;;;;;6.18;0.77;;;19.30;99.90;;;;;;4999773;28;20137;-35
2023/09/13 10:25:49;;;;;;;3.45;0.85;;;18.90;99.90;;;;;;5006881;28;20041;-36
2023/09/13 10:28:17;;;;;;;3.58;0.90;;;18.50;99.90;;;;;;4988204;28;20131;-36
2023/09/13 10:30:48;;;;;;;2.38;0.77;;;18.10;99.90;;;;;;5000503;28;20050;-36
2023/09/13 10:33:15;;;;;;;3.73;0.63;;;17.90;99.90;;;;;;5001153;28;20052;-35
2023/09/13 10:35:44;;;;;;;4.28;0.70;;;17.70;99.90;;;;;;4999983;28;20080;-35
2023/09/13 10:38:42;;;;;;;2.40;0.60;;;17.70;99.90;;;;;;5000740;28;20525;-36
2023/09/13 10:41:13;;;;;;;3.30;0.65;;;17.60;99.90;;;;;;5002396;28;20510;-37
2023/09/13 10:43:40;;;;;;;3.60;0.60;;;17.70;99.90;;;;;;5001865;28;20058;-36
2023/09/13 10:46:08;;;;;;;3.53;0.77;;;17.80;99.90;;;;;;5003332;28;20483;-36
2023/09/13 10:48:35;;;;;;;6.10;0.90;;;17.90;99.90;;;;;;5006625;28;20058;-36
2023/09/13 10:51:01;;;;;;;3.38;1.23;;;17.90;99.90;;;;;;5007150;28;20064;-37
2023/09/13 10:53:27;;;;;;;3.75;1.08;;;17.80;99.90;;;;;;5005407;28;20112;-36
2023/09/13 10:55:54;;;;;;;5.50;1.20;;;17.50;99.90;;;;;;4985416;28;20458;-36
2023/09/13 10:58:21;;;;;;;2.30;0.77;;;17.40;99.90;;;;;;5002407;28;20104;-36
2023/09/13 11:00:50;;;;;;;4.80;1.27;;;17.40;99.90;;;;;;4988835;28;20131;-36
2023/09/13 11:03:17;;;;;;;10.32;1.67;;;17.40;99.90;;;;;;4998548;28;20054;-36
2023/09/13 11:05:47;;;;;;;10.27;2.13;;;17.50;99.90;;;;;;5003073;28;20101;-37
2023/09/13 11:08:31;;;;;;;6.22;1.45;;;17.60;99.90;;;;;;5002732;28;20419;-36
2023/09/13 11:11:18;;;;;;;7.32;1.42;;;17.70;99.90;;;;;;5001359;28;20487;-35
2023/09/13 11:13:46;;;;;;;5.43;1.40;;;17.80;99.90;;;;;;5001061;28;20495;-37
2023/09/13 11:16:16;;;;;;;6.30;1.38;;;18.10;99.90;;;;;;5004190;28;20107;-36
2023/09/13 11:18:52;;;;;;;6.60;1.23;;;18.30;99.90;;;;;;5000949;28;20089;-36
2023/09/13 11:21:25;;;;;;;7.32;1.60;;;18.50;99.90;;;;;;5001893;28;20057;-36
2023/09/13 11:23:52;;;;;;;2.80;1.00;;;18.80;99.90;;;;;;4975883;28;20068;-36
2023/09/13 11:26:45;;;;;;;5.63;1.30;;;19.10;99.90;;;;;;4999415;28;20056;-37
2023/09/13 11:29:25;;;;;;;4.30;1.02;;;19.40;99.90;;;;;;4997935;28;20053;-36
2023/09/13 11:31:58;;;;;;;4.38;1.13;;;19.60;99.90;;;;;;4978770;28;20041;-36
2023/09/13 11:34:24;;;;;;;5.57;1.17;;;19.70;99.90;;;;;;4996737;28;20510;-37
2023/09/13 11:37:00;;;;;;;5.55;0.95;;;19.70;99.90;;;;;;4993418;28;20050;-37
2023/09/13 11:39:30;;;;;;;3.08;0.73;;;19.80;99.90;;;;;;4994651;28;20058;-36
2023/09/13 11:41:56;;;;;;;3.58;0.77;;;19.90;99.90;;;;;;4997834;28;20450;-37
2023/09/13 11:44:23;;;;;;;6.03;0.90;;;19.90;99.90;;;;;;5000379;28;20092;-36
2023/09/13 11:46:51;;;;;;;3.78;0.90;;;19.90;99.90;;;;;;4999839;28;20053;-36
2023/09/13 11:49:25;;;;;;;4.38;1.10;;;20.00;99.90;;;;;;5001065;28;20487;-36
2023/09/13 11:51:53;;;;;;;4.20;1.00;;;20.00;99.90;;;;;;4985018;28;20042;-36
2023/09/13 11:54:21;;;;;;;4.20;1.20;;;20.10;99.90;;;;;;5000072;28;20053;-36
2023/09/13 11:56:49;;;;;;;7.05;1.58;;;20.20;99.90;;;;;;4998851;28;20145;-37
2023/09/13 11:59:15;;;;;;;6.60;1.10;;;20.30;99.90;;;;;;4995607;28;20045;-36
2023/09/13 12:01:45;;;;;;;3.88;0.90;;;20.40;99.90;;;;;;4996596;28;20054;-36
2023/09/13 12:04:11;;;;;;;4.00;1.13;;;20.50;99.90;;;;;;4984763;28;20145;-37
2023/09/13 12:06:56;;;;;;;5.28;1.20;;;20.60;99.90;;;;;;4995579;28;20068;-36
2023/09/13 12:09:23;;;;;;;3.70;1.13;;;20.70;99.90;;;;;;4998217;28;20164;-37
2023/09/13 12:11:55;;;;;;;3.42;1.00;;;20.70;99.90;;;;;;5001134;28;20179;-37
2023/09/13 12:14:25;;;;;;;3.28;1.05;;;20.80;99.90;;;;;;5004353;28;20046;-36
2023/09/13 12:16:52;;;;;;;4.95;1.10;;;20.80;99.90;;;;;;5001452;28;20496;-37
2023/09/13 12:19:18;;;;;;;2.75;1.00;;;20.80;99.90;;;;;;4997050;28;20068;-36
2023/09/13 12:21:45;;;;;;;2.42;1.00;;;20.80;99.90;;;;;;4994849;28;20076;-36
2023/09/13 12:24:17;;;;;;;4.15;1.25;;;20.70;99.90;;;;;;5000840;28;20057;-37
2023/09/13 12:26:43;;;;;;;3.63;0.88;;;20.70;99.90;;;;;;4994351;28;20058;-36
2023/09/13 12:29:08;;;;;;;2.78;1.08;;;20.70;99.90;;;;;;5000889;28;20049;-37
2023/09/13 12:31:34;;;;;;;5.47;1.52;;;20.70;99.90;;;;;;4998903;28;20050;-37
2023/09/13 12:34:01;;;;;;;2.05;0.90;;;20.80;99.90;;;;;;4996815;28;20095;-34
2023/09/13 12:36:27;;;;;;;3.33;1.02;;;20.90;99.90;;;;;;4991337;28;20053;-35
2023/09/13 12:38:55;;;;;;;5.20;0.90;;;20.90;99.90;;;;;;4996100;28;20057;-34
2023/09/13 12:41:29;;;;;;;3.03;0.80;;;21.00;99.90;;;;;;5002320;28;20387;-35
2023/09/13 12:43:55;;;;;;;3.80;1.05;;;21.00;99.90;;;;;;4999852;28;20384;-35
2023/09/13 12:46:25;;;;;;;2.58;0.90;;;21.10;99.90;;;;;;4999826;28;20515;-35
2023/09/13 12:48:53;;;;;;;3.22;1.00;;;21.40;99.90;;;;;;4999549;28;20054;-35